createdAt,value
2023-02-01T00:01:07.341Z,100.00
2023-02-01T00:03:34.144Z,100.00
2023-02-01T00:06:01.339Z,100.00
2023-02-01T00:08:28.431Z,100.00
2023-02-01T00:11:01.768Z,100.00
2023-02-01T00:13:34.299Z,100.00
2023-02-01T00:16:04.895Z,100.00
2023-02-01T00:18:31.757Z,100.00
2023-02-01T00:20:58.737Z,100.00
2023-02-01T00:23:25.430Z,100.00
2023-02-01T00:25:52.178Z,100.00
2023-02-01T00:28:18.873Z,100.00
2023-02-01T00:30:46.986Z,100.00
2023-02-01T00:33:13.680Z,100.00
2023-02-01T00:35:40.393Z,100.00
2023-02-01T00:38:07.097Z,100.00
2023-02-01T00:40:41.429Z,100.00
2023-02-01T00:43:08.214Z,100.00
2023-02-01T00:45:34.875Z,100.00
2023-02-01T00:48:02.980Z,100.00
2023-02-01T00:50:29.762Z,100.00
2023-02-01T00:52:56.476Z,100.00
2023-02-01T00:55:23.196Z,100.00
2023-02-01T00:57:49.880Z,100.00
2023-02-01T01:00:17.966Z,100.00
2023-02-01T01:02:44.665Z,100.00
2023-02-01T01:05:12.769Z,100.00
2023-02-01T01:07:39.455Z,100.00
2023-02-01T01:10:07.092Z,100.00
2023-02-01T01:12:33.743Z,100.00
2023-02-01T01:15:00.424Z,100.00
2023-02-01T01:17:27.063Z,100.00
2023-02-01T01:19:53.809Z,100.00
2023-02-01T01:22:21.846Z,100.00
2023-02-01T01:24:48.477Z,100.00
2023-02-01T01:27:16.019Z,100.00
2023-02-01T01:29:42.698Z,100.00
2023-02-01T01:32:09.421Z,100.00
2023-02-01T01:34:36.204Z,100.00
2023-02-01T01:37:03.006Z,100.00
2023-02-01T01:39:31.180Z,100.00
2023-02-01T01:41:57.865Z,100.00
2023-02-01T01:44:57.955Z,100.00
2023-02-01T01:47:25.220Z,100.00
2023-02-01T01:49:52.172Z,100.00
2023-02-01T01:52:19.695Z,100.00
2023-02-01T01:54:52.364Z,100.00
2023-02-01T01:57:24.985Z,100.00
2023-02-01T01:59:56.027Z,100.00
2023-02-01T02:02:22.941Z,100.00
2023-02-01T02:04:49.847Z,100.00
2023-02-01T02:07:21.075Z,100.00
2023-02-01T02:10:00.220Z,100.00
2023-02-01T02:12:27.919Z,100.00
2023-02-01T02:14:54.910Z,100.00
2023-02-01T02:17:32.332Z,100.00
2023-02-01T02:20:40.604Z,100.00
2023-02-01T02:23:43.908Z,100.00
2023-02-01T02:26:56.493Z,100.00
2023-02-01T02:30:10.100Z,100.00
2023-02-01T02:33:15.527Z,100.00
2023-02-01T02:35:49.481Z,100.00
2023-02-01T02:38:25.781Z,100.00
2023-02-01T02:41:04.999Z,100.00
2023-02-01T02:43:36.927Z,100.00
2023-02-01T02:46:08.899Z,100.00
2023-02-01T02:48:41.908Z,100.00
2023-02-01T02:51:14.192Z,100.00
2023-02-01T02:53:49.934Z,100.00
2023-02-01T02:56:19.105Z,100.00
2023-02-01T02:58:47.588Z,100.00
2023-02-01T03:01:14.325Z,100.00
2023-02-01T03:03:41.091Z,100.00
2023-02-01T03:06:14.491Z,100.00
2023-02-01T03:08:41.184Z,100.00
2023-02-01T03:11:10.919Z,100.00
2023-02-01T03:13:42.919Z,100.00
2023-02-01T03:16:16.458Z,100.00
2023-02-01T03:18:49.772Z,100.00
2023-02-01T03:21:22.696Z,100.00
2023-02-01T03:23:51.773Z,100.00
2023-02-01T03:26:21.514Z,100.00
2023-02-01T03:28:54.757Z,100.00
2023-02-01T03:31:21.658Z,100.00
2023-02-01T03:33:48.449Z,100.00
2023-02-01T03:36:24.208Z,100.00
2023-02-01T03:38:56.625Z,100.00
2023-02-01T03:41:29.757Z,100.00
2023-02-01T03:44:02.707Z,100.00
2023-02-01T03:46:34.120Z,100.00
2023-02-01T03:49:04.500Z,100.00
2023-02-01T03:51:33.631Z,100.00
2023-02-01T03:54:04.118Z,100.00
2023-02-01T03:56:32.337Z,100.00
2023-02-01T03:58:59.002Z,100.00
2023-02-01T04:01:27.109Z,100.00
2023-02-01T04:03:53.882Z,100.00
2023-02-01T04:06:20.633Z,100.00
2023-02-01T04:08:48.781Z,100.00
2023-02-01T04:11:15.472Z,100.00
2023-02-01T04:13:42.168Z,100.00
2023-02-01T04:16:08.918Z,100.00
2023-02-01T04:18:35.618Z,100.00
2023-02-01T04:21:02.667Z,100.00
2023-02-01T04:23:29.617Z,100.00
2023-02-01T04:26:01.727Z,100.00
2023-02-01T04:28:28.697Z,100.00
2023-02-01T04:30:55.494Z,100.00
2023-02-01T04:33:22.266Z,100.00
2023-02-01T04:35:49.396Z,100.00
2023-02-01T04:38:16.162Z,100.00
2023-02-01T04:40:42.783Z,100.00
2023-02-01T04:43:10.807Z,100.00
2023-02-01T04:45:37.541Z,100.00
2023-02-01T04:48:04.858Z,100.00
2023-02-01T04:50:31.520Z,100.00
2023-02-01T04:52:58.185Z,100.00
2023-02-01T04:55:24.899Z,100.00
2023-02-01T04:57:51.536Z,100.00
2023-02-01T05:00:20.226Z,100.00
2023-02-01T05:02:46.906Z,100.00
2023-02-01T05:05:13.642Z,100.00
2023-02-01T05:07:40.408Z,100.00
2023-02-01T05:10:08.160Z,100.00
2023-02-01T05:12:34.858Z,100.00
2023-02-01T05:15:08.074Z,100.00
2023-02-01T05:17:36.206Z,100.00
2023-02-01T05:20:03.016Z,100.00
2023-02-01T05:22:29.693Z,100.00
2023-02-01T05:24:56.349Z,100.00
2023-02-01T05:27:23.015Z,100.00
2023-02-01T05:29:49.780Z,100.00
2023-02-01T05:32:22.585Z,100.00
2023-02-01T05:34:51.300Z,100.00
2023-02-01T05:37:18.027Z,100.00
2023-02-01T05:39:44.708Z,100.00
2023-02-01T05:42:11.359Z,100.00
2023-02-01T05:44:38.026Z,100.00
2023-02-01T05:47:05.142Z,100.00
2023-02-01T05:49:31.780Z,100.00
2023-02-01T05:52:00.753Z,100.00
2023-02-01T05:54:27.566Z,100.00
2023-02-01T05:56:54.245Z,100.00
2023-02-01T05:59:20.957Z,100.00
2023-02-01T06:01:47.590Z,100.00
2023-02-01T06:04:14.240Z,100.00
2023-02-01T06:06:41.059Z,100.00
2023-02-01T06:09:09.173Z,100.00
2023-02-01T06:11:35.842Z,100.00
2023-02-01T06:14:02.507Z,100.00
2023-02-01T06:16:29.262Z,100.00
2023-02-01T06:18:55.908Z,100.00
2023-02-01T06:21:22.607Z,100.00
2023-02-01T06:23:49.248Z,100.00
2023-02-01T06:26:17.560Z,100.00
2023-02-01T06:28:44.247Z,100.00
2023-02-01T06:31:11.317Z,100.00
2023-02-01T06:33:38.078Z,100.00
2023-02-01T06:36:07.685Z,100.00
2023-02-01T06:38:34.325Z,100.00
2023-02-01T06:41:01.319Z,100.00
2023-02-01T06:43:29.340Z,100.00
2023-02-01T06:46:01.388Z,100.00
2023-02-01T06:48:28.195Z,100.00
2023-02-01T06:50:54.851Z,100.00
2023-02-01T06:53:21.537Z,100.00
2023-02-01T06:55:54.988Z,100.00
2023-02-01T06:58:21.704Z,100.00
2023-02-01T07:00:49.986Z,100.00
2023-02-01T07:03:16.755Z,100.00
2023-02-01T07:05:43.401Z,100.00
2023-02-01T07:08:10.037Z,100.00
2023-02-01T07:10:36.606Z,100.00
2023-02-01T07:13:03.347Z,100.00
2023-02-01T07:15:29.997Z,100.00
2023-02-01T07:17:58.237Z,100.00
2023-02-01T07:20:25.296Z,100.00
2023-02-01T07:22:56.233Z,100.00
2023-02-01T07:25:22.883Z,100.00
2023-02-01T07:27:49.537Z,100.00
2023-02-01T07:30:16.428Z,100.00
2023-02-01T07:32:43.255Z,100.00
2023-02-01T07:35:11.389Z,100.00
2023-02-01T07:37:38.069Z,100.00
2023-02-01T07:40:05.757Z,100.00
2023-02-01T07:42:32.339Z,100.00
2023-02-01T07:45:07.892Z,100.00
2023-02-01T07:47:41.563Z,100.00
2023-02-01T07:50:09.150Z,100.00
2023-02-01T07:52:37.151Z,100.00
2023-02-01T07:55:04.193Z,100.00
2023-02-01T07:57:30.811Z,100.00
2023-02-01T07:59:57.440Z,100.00
2023-02-01T08:02:24.137Z,100.00
2023-02-01T08:04:50.779Z,100.00
2023-02-01T08:07:17.462Z,100.00
2023-02-01T08:09:45.430Z,100.00
2023-02-01T08:12:12.110Z,100.00
2023-02-01T08:14:38.685Z,100.00
2023-02-01T08:17:05.265Z,100.00
2023-02-01T08:19:31.909Z,100.00
2023-02-01T08:21:58.465Z,100.00
2023-02-01T08:24:25.075Z,100.00
2023-02-01T08:26:53.119Z,100.00
2023-02-01T08:29:19.798Z,100.00
2023-02-01T08:31:46.528Z,100.00
2023-02-01T08:34:13.153Z,100.00
2023-02-01T08:36:39.778Z,100.00
2023-02-01T08:39:06.437Z,100.00
2023-02-01T08:41:33.132Z,100.00
2023-02-01T08:44:01.150Z,100.00
2023-02-01T08:46:28.111Z,100.00
2023-02-01T08:48:54.812Z,100.00
2023-02-01T08:51:23.775Z,100.00
2023-02-01T08:53:51.162Z,100.00
2023-02-01T08:56:19.000Z,100.00
2023-02-01T08:58:46.016Z,100.00
2023-02-01T09:01:16.057Z,100.00
2023-02-01T09:03:42.877Z,100.00
2023-02-01T09:06:11.766Z,100.00
2023-02-01T09:08:39.741Z,100.00
2023-02-01T09:11:09.286Z,100.00
2023-02-01T09:13:35.859Z,100.00
2023-02-01T09:16:02.659Z,100.00
2023-02-01T09:18:30.975Z,100.00
2023-02-01T09:20:57.601Z,100.00
2023-02-01T09:23:24.657Z,100.00
2023-02-01T09:25:51.615Z,100.00
2023-02-01T09:28:18.560Z,100.00
2023-02-01T09:30:45.322Z,100.00
2023-02-01T09:33:12.019Z,100.00
2023-02-01T09:35:40.093Z,100.00
2023-02-01T09:38:06.876Z,100.00
2023-02-01T09:40:35.429Z,100.00
2023-02-01T09:43:14.757Z,100.00
2023-02-01T09:45:50.377Z,100.00
2023-02-01T09:48:20.716Z,100.00
2023-02-01T09:50:53.861Z,100.00
2023-02-01T09:53:27.664Z,100.00
2023-02-01T09:56:00.633Z,100.00
2023-02-01T09:58:32.489Z,100.00
2023-02-01T10:01:02.024Z,100.00
2023-02-01T10:03:31.178Z,100.00
2023-02-01T10:06:17.090Z,100.00
2023-02-01T10:09:05.211Z,99.91
2023-02-01T10:11:43.116Z,98.09
2023-02-01T10:14:21.278Z,97.60
2023-02-01T10:16:54.426Z,97.98
2023-02-01T10:19:34.547Z,98.98
2023-02-01T10:22:07.827Z,97.69
2023-02-01T10:24:42.632Z,96.05
2023-02-01T10:27:16.069Z,97.09
2023-02-01T10:29:45.367Z,96.94
2023-02-01T10:32:15.276Z,94.89
2023-02-01T10:34:43.209Z,96.67
2023-02-01T10:37:18.973Z,97.56
2023-02-01T10:39:46.028Z,93.39
2023-02-01T10:42:12.744Z,94.31
2023-02-01T10:44:43.355Z,92.22
2023-02-01T10:47:10.226Z,91.02
2023-02-01T10:49:41.840Z,89.25
2023-02-01T10:52:16.267Z,91.29
2023-02-01T10:54:43.330Z,91.35
2023-02-01T10:57:11.368Z,95.55
2023-02-01T10:59:38.334Z,92.86
2023-02-01T11:02:19.041Z,92.93
2023-02-01T11:04:45.859Z,91.93
2023-02-01T11:07:20.355Z,94.34
2023-02-01T11:09:51.994Z,91.42
2023-02-01T11:12:29.157Z,93.32
2023-02-01T11:15:01.226Z,89.91
2023-02-01T11:17:33.219Z,89.11
2023-02-01T11:20:01.637Z,89.65
2023-02-01T11:22:30.036Z,91.78
2023-02-01T11:24:57.151Z,89.38
2023-02-01T11:27:27.566Z,90.69
2023-02-01T11:30:00.659Z,91.02
2023-02-01T11:32:28.353Z,89.74
2023-02-01T11:35:00.674Z,91.49
2023-02-01T11:37:31.392Z,87.67
2023-02-01T11:39:59.779Z,86.78
2023-02-01T11:42:27.783Z,85.51
2023-02-01T11:45:19.597Z,85.44
2023-02-01T11:47:46.853Z,85.54
2023-02-01T11:50:18.639Z,85.29
2023-02-01T11:53:04.075Z,83.63
2023-02-01T11:55:43.518Z,85.60
2023-02-01T11:58:35.911Z,85.70
2023-02-01T12:01:26.547Z,84.37
2023-02-01T12:04:28.411Z,87.04
2023-02-01T12:06:57.263Z,84.87
2023-02-01T12:09:40.870Z,85.23
2023-02-01T12:12:17.402Z,85.80
2023-02-01T12:15:09.990Z,88.83
2023-02-01T12:17:52.080Z,89.57
2023-02-01T12:20:33.075Z,89.08
2023-02-01T12:23:16.999Z,90.60
2023-02-01T12:26:05.767Z,92.58
2023-02-01T12:29:00.104Z,94.57
2023-02-01T12:31:49.232Z,95.24
2023-02-01T12:34:35.372Z,94.88
2023-02-01T12:37:15.486Z,93.61
2023-02-01T12:39:57.579Z,93.55
2023-02-01T12:42:30.087Z,94.02
2023-02-01T12:45:01.029Z,94.08
2023-02-01T12:47:33.989Z,93.92
2023-02-01T12:50:05.221Z,94.46
2023-02-01T12:52:39.266Z,94.38
2023-02-01T12:55:16.474Z,92.71
2023-02-01T12:57:48.584Z,90.78
2023-02-01T13:00:23.651Z,91.59
2023-02-01T13:02:56.152Z,90.07
2023-02-01T13:05:28.164Z,87.90
2023-02-01T13:08:01.158Z,87.15
2023-02-01T13:10:34.963Z,87.49
2023-02-01T13:13:12.388Z,88.30
2023-02-01T13:15:43.684Z,87.44
2023-02-01T13:18:17.517Z,88.88
2023-02-01T13:20:50.684Z,89.78
2023-02-01T13:23:25.812Z,90.72
2023-02-01T13:25:53.812Z,93.16
2023-02-01T13:28:27.373Z,94.21
2023-02-01T13:31:27.688Z,93.82
2023-02-01T13:34:11.072Z,93.91
2023-02-01T13:36:50.180Z,93.36
2023-02-01T13:39:37.756Z,95.04
2023-02-01T13:42:13.423Z,96.03
2023-02-01T13:44:45.658Z,97.01
2023-02-01T13:47:22.703Z,97.55
2023-02-01T13:49:50.112Z,98.92
2023-02-01T13:52:28.238Z,98.96
2023-02-01T13:55:16.231Z,100.00
2023-02-01T13:57:44.549Z,100.00
2023-02-01T14:00:27.630Z,100.00
2023-02-01T14:03:16.578Z,100.00
2023-02-01T14:06:16.649Z,100.00
2023-02-01T14:08:46.386Z,100.00
2023-02-01T14:11:33.225Z,100.00
2023-02-01T14:14:22.934Z,100.00
2023-02-01T14:17:23.035Z,100.00
2023-02-01T14:20:43.889Z,100.00
2023-02-01T14:23:23.446Z,100.00
2023-02-01T14:26:02.138Z,100.00
2023-02-01T14:28:30.734Z,100.00
2023-02-01T14:30:58.742Z,100.00
2023-02-01T14:33:28.641Z,99.42
2023-02-01T14:36:04.241Z,98.55
2023-02-01T14:38:33.593Z,99.82
2023-02-01T14:41:24.790Z,98.80
2023-02-01T14:43:52.541Z,97.99
2023-02-01T14:46:20.052Z,99.22
2023-02-01T14:48:48.110Z,100.00
2023-02-01T14:51:18.328Z,99.43
2023-02-01T14:53:46.639Z,98.79
2023-02-01T14:56:17.880Z,98.50
2023-02-01T14:58:51.936Z,99.03
2023-02-01T15:01:23.439Z,99.45
2023-02-01T15:03:56.412Z,99.08
2023-02-01T15:06:31.208Z,98.60
2023-02-01T15:09:05.214Z,98.93
2023-02-01T15:11:32.013Z,98.47
2023-02-01T15:13:58.631Z,97.59
2023-02-01T15:16:26.591Z,98.20
2023-02-01T15:19:09.659Z,96.67
2023-02-01T15:21:49.551Z,96.79
2023-02-01T15:24:21.905Z,95.81
2023-02-01T15:26:49.196Z,94.98
2023-02-01T15:29:16.254Z,96.14
2023-02-01T15:31:45.333Z,97.03
2023-02-01T15:34:12.444Z,96.34
2023-02-01T15:36:40.361Z,96.61
2023-02-01T15:39:21.574Z,97.47
2023-02-01T15:41:51.150Z,98.38
2023-02-01T15:44:20.040Z,99.41
2023-02-01T15:46:49.769Z,98.89
2023-02-01T15:49:25.956Z,100.00
2023-02-01T15:51:54.518Z,100.00
2023-02-01T15:54:27.159Z,100.00
2023-02-01T15:56:57.273Z,100.00
2023-02-01T15:59:33.959Z,100.00
2023-02-01T16:02:00.845Z,100.00
2023-02-01T16:04:29.458Z,100.00
2023-02-01T16:06:57.960Z,100.00
2023-02-01T16:09:37.063Z,100.00
2023-02-01T16:12:21.366Z,100.00
2023-02-01T16:14:47.983Z,100.00
2023-02-01T16:17:14.640Z,100.00
2023-02-01T16:19:41.255Z,100.00
2023-02-01T16:22:07.934Z,100.00
2023-02-01T16:24:36.118Z,100.00
2023-02-01T16:27:02.721Z,100.00
2023-02-01T16:29:29.407Z,100.00
2023-02-01T16:31:56.057Z,100.00
2023-02-01T16:34:22.880Z,100.00
2023-02-01T16:36:50.762Z,100.00
2023-02-01T16:39:17.404Z,100.00
2023-02-01T16:41:45.989Z,100.00
2023-02-01T16:44:12.830Z,100.00
2023-02-01T16:46:41.706Z,100.00
2023-02-01T16:49:19.173Z,100.00
2023-02-01T16:51:46.065Z,100.00
2023-02-01T16:54:12.733Z,100.00
2023-02-01T16:56:41.372Z,100.00
2023-02-01T16:59:09.508Z,100.00
2023-02-01T17:01:36.441Z,100.00
2023-02-01T17:04:03.167Z,100.00
2023-02-01T17:06:31.209Z,100.00
2023-02-01T17:08:59.060Z,100.00
2023-02-01T17:11:26.808Z,100.00
2023-02-01T17:13:54.268Z,100.00
2023-02-01T17:16:27.708Z,100.00
2023-02-01T17:18:57.890Z,100.00
2023-02-01T17:21:26.367Z,100.00
2023-02-01T17:23:53.692Z,100.00
2023-02-01T17:26:20.575Z,100.00
2023-02-01T17:28:47.591Z,100.00
2023-02-01T17:31:15.960Z,100.00
2023-02-01T17:33:45.326Z,100.00
2023-02-01T17:36:14.848Z,100.00
2023-02-01T17:38:41.767Z,100.00
2023-02-01T17:41:11.298Z,100.00
2023-02-01T17:43:38.557Z,100.00
2023-02-01T17:46:11.186Z,100.00
2023-02-01T17:48:37.855Z,100.00
2023-02-01T17:51:12.141Z,100.00
2023-02-01T17:53:38.791Z,100.00
2023-02-01T17:56:06.064Z,100.00
2023-02-01T17:58:32.676Z,100.00
2023-02-01T18:00:59.537Z,100.00
2023-02-01T18:03:27.947Z,100.00
2023-02-01T18:05:55.649Z,100.00
2023-02-01T18:08:26.691Z,100.00
2023-02-01T18:10:55.912Z,100.00
2023-02-01T18:13:22.697Z,100.00
2023-02-01T18:15:49.382Z,100.00
2023-02-01T18:18:16.102Z,100.00
2023-02-01T18:20:45.046Z,100.00
2023-02-01T18:23:17.135Z,100.00
2023-02-01T18:25:45.597Z,100.00
2023-02-01T18:28:12.261Z,100.00
2023-02-01T18:30:39.000Z,100.00
2023-02-01T18:33:05.738Z,100.00
2023-02-01T18:35:32.665Z,100.00
2023-02-01T18:37:59.365Z,100.00
2023-02-01T18:40:28.584Z,100.00
2023-02-01T18:42:56.825Z,100.00
2023-02-01T18:45:34.144Z,100.00
2023-02-01T18:48:01.254Z,100.00
2023-02-01T18:50:30.350Z,100.00
2023-02-01T18:52:58.635Z,100.00
2023-02-01T18:55:26.440Z,100.00
2023-02-01T18:57:53.717Z,100.00
2023-02-01T19:00:23.842Z,100.00
2023-02-01T19:02:50.580Z,100.00
2023-02-01T19:05:17.940Z,100.00
2023-02-01T19:07:45.790Z,100.00
2023-02-01T19:10:14.730Z,100.00
2023-02-01T19:12:42.036Z,100.00
2023-02-01T19:15:11.408Z,100.00
2023-02-01T19:17:39.555Z,100.00
2023-02-01T19:20:07.512Z,100.00
2023-02-01T19:22:34.158Z,100.00
2023-02-01T19:25:00.933Z,100.00
2023-02-01T19:27:27.580Z,100.00
2023-02-01T19:29:54.485Z,100.00
2023-02-01T19:32:21.263Z,100.00
2023-02-01T19:34:49.274Z,100.00
2023-02-01T19:37:15.959Z,100.00
2023-02-01T19:39:42.950Z,100.00
2023-02-01T19:42:09.676Z,100.00
2023-02-01T19:44:36.362Z,100.00
2023-02-01T19:47:03.136Z,100.00
2023-02-01T19:49:29.970Z,100.00
2023-02-01T19:51:58.004Z,100.00
2023-02-01T19:54:24.660Z,100.00
2023-02-01T19:56:51.361Z,100.00
2023-02-01T19:59:18.453Z,100.00
2023-02-01T20:01:44.762Z,100.00
2023-02-01T20:04:11.395Z,100.00
2023-02-01T20:06:40.722Z,100.00
2023-02-01T20:09:08.917Z,100.00
2023-02-01T20:11:35.577Z,100.00
2023-02-01T20:14:02.336Z,100.00
2023-02-01T20:16:29.039Z,100.00
2023-02-01T20:18:55.873Z,100.00
2023-02-01T20:21:22.559Z,100.00
2023-02-01T20:23:49.365Z,100.00
2023-02-01T20:26:18.517Z,100.00
2023-02-01T20:28:45.193Z,100.00
2023-02-01T20:31:11.847Z,100.00
2023-02-01T20:33:38.547Z,100.00
2023-02-01T20:36:05.805Z,100.00
2023-02-01T20:38:32.494Z,100.00
2023-02-01T20:41:03.119Z,100.00
2023-02-01T20:43:31.248Z,100.00
2023-02-01T20:45:57.938Z,100.00
2023-02-01T20:48:24.627Z,100.00
2023-02-01T20:50:53.202Z,100.00
2023-02-01T20:53:26.820Z,100.00
2023-02-01T20:55:54.592Z,100.00
2023-02-01T20:58:21.991Z,100.00
2023-02-01T21:00:50.722Z,100.00
2023-02-01T21:03:17.682Z,100.00
2023-02-01T21:05:47.428Z,100.00
2023-02-01T21:08:14.572Z,100.00
2023-02-01T21:10:41.431Z,100.00
2023-02-01T21:13:08.655Z,100.00
2023-02-01T21:15:35.411Z,100.00
2023-02-01T21:18:05.032Z,100.00
2023-02-01T21:20:31.527Z,100.00
2023-02-01T21:22:58.340Z,100.00
2023-02-01T21:25:25.503Z,100.00
2023-02-01T21:27:55.051Z,100.00
2023-02-01T21:30:22.038Z,100.00
2023-02-01T21:32:48.946Z,100.00
2023-02-01T21:35:17.512Z,100.00
2023-02-01T21:37:44.525Z,100.00
2023-02-01T21:40:12.040Z,100.00
2023-02-01T21:42:42.824Z,100.00
2023-02-01T21:45:10.336Z,100.00
2023-02-01T21:47:37.049Z,100.00
2023-02-01T21:50:04.724Z,100.00
2023-02-01T21:52:34.302Z,100.00
2023-02-01T21:55:01.309Z,100.00
2023-02-01T21:57:28.962Z,100.00
2023-02-01T21:59:55.928Z,100.00
2023-02-01T22:02:23.205Z,100.00
2023-02-01T22:04:50.052Z,100.00
2023-02-01T22:07:17.310Z,100.00
2023-02-01T22:09:45.607Z,100.00
2023-02-01T22:12:14.268Z,100.00
2023-02-01T22:14:41.273Z,100.00
2023-02-01T22:17:08.834Z,100.00
2023-02-01T22:19:38.422Z,100.00
2023-02-01T22:22:09.990Z,100.00
2023-02-01T22:24:36.782Z,100.00
2023-02-01T22:27:13.824Z,100.00
2023-02-01T22:29:41.787Z,100.00
2023-02-01T22:32:09.388Z,100.00
2023-02-01T22:34:36.522Z,100.00
2023-02-01T22:37:05.753Z,100.00
2023-02-01T22:39:32.547Z,100.00
2023-02-01T22:41:59.197Z,100.00
2023-02-01T22:44:27.232Z,100.00
2023-02-01T22:46:53.880Z,100.00
2023-02-01T22:49:20.461Z,100.00
2023-02-01T22:51:47.099Z,100.00
2023-02-01T22:54:17.428Z,100.00
2023-02-01T22:56:44.095Z,100.00
2023-02-01T22:59:12.380Z,100.00
2023-02-01T23:01:41.010Z,100.00
2023-02-01T23:04:10.977Z,100.00
2023-02-01T23:06:37.613Z,100.00
2023-02-01T23:09:10.407Z,100.00
2023-02-01T23:11:37.790Z,100.00
2023-02-01T23:14:04.976Z,100.00
2023-02-01T23:16:31.735Z,100.00
2023-02-01T23:19:02.258Z,100.00
2023-02-01T23:21:28.901Z,100.00
2023-02-01T23:23:57.662Z,100.00
2023-02-01T23:26:26.966Z,100.00
2023-02-01T23:28:54.443Z,100.00
2023-02-01T23:31:22.604Z,100.00
2023-02-01T23:33:49.360Z,100.00
2023-02-01T23:36:17.401Z,100.00
2023-02-01T23:38:44.691Z,100.00
2023-02-01T23:41:12.722Z,100.00
2023-02-01T23:43:39.572Z,100.00
2023-02-01T23:46:06.269Z,100.00
2023-02-01T23:48:32.942Z,100.00
2023-02-01T23:50:59.576Z,100.00
2023-02-01T23:53:27.615Z,100.00
2023-02-01T23:55:55.079Z,100.00
2023-02-01T23:58:22.653Z,100.00
